Hastings, Michigan
Current Conditions -  °F | °C
As of 6:53 PM on Saturday 25 Oct 2014 (Local Time) from KGRR Reporting Station
Clear Clear  
Wind Chill: 61°   Ceiling: Unl
Heat Index: 61°   Visibility: 10mi
Dew Point: 34°   Wind: 13mph
Humidity: 36%   Direction: 280°W
Pressure: 29.83"   Gusts: NA
Location:  42.65°N, 85.29°W
Report Text: KGRR 252253Z 28011KT 10SM CLR 16/01 A2983 RMK AO2 PK WND 28027/2200 SLP101 T01610011
Loading
Personal Weather Stations






























Interactive Weather Map
Tropical Storm Tracking
New forecast layout! Learn more

10-Day Weather Forecast

Advertisements
Track Severe Weather on mobile